createdAt,value
2019-03-31T00:00:03.817Z,20
2019-03-31T00:01:08.100Z,20
2019-03-31T00:02:01.747Z,19
2019-03-31T00:03:01.945Z,21
2019-03-31T00:04:02.224Z,19
2019-03-31T00:05:02.135Z,20
2019-03-31T00:06:05.876Z,21
2019-03-31T00:07:01.523Z,19
2019-03-31T00:08:01.743Z,20
2019-03-31T00:09:02.025Z,20
2019-03-31T00:10:02.295Z,22
2019-03-31T00:11:01.570Z,20
2019-03-31T00:12:01.758Z,21
2019-03-31T00:13:02.041Z,20
2019-03-31T00:14:02.326Z,20
2019-03-31T00:15:01.526Z,20
2019-03-31T00:16:01.726Z,21
2019-03-31T00:17:02.015Z,20
2019-03-31T00:18:02.205Z,21
2019-03-31T00:19:01.409Z,20
2019-03-31T00:20:01.596Z,21
2019-03-31T00:21:01.800Z,20
2019-03-31T00:22:02.098Z,21
2019-03-31T00:23:02.290Z,19
2019-03-31T00:24:01.646Z,21
2019-03-31T00:25:01.890Z,20
2019-03-31T00:26:02.103Z,20
2019-03-31T00:27:02.309Z,20
2019-03-31T00:28:01.505Z,20
2019-03-31T00:29:01.814Z,19
2019-03-31T00:30:01.669Z,19
2019-03-31T00:31:01.568Z,21
2019-03-31T00:32:01.841Z,20
2019-03-31T00:33:02.038Z,21
2019-03-31T00:34:02.310Z,19
2019-03-31T00:35:01.470Z,20
2019-03-31T00:36:01.682Z,19
2019-03-31T00:37:01.877Z,22
2019-03-31T00:38:02.065Z,21
2019-03-31T00:39:02.316Z,20
2019-03-31T00:40:01.536Z,21
2019-03-31T00:41:01.676Z,20
2019-03-31T00:42:01.853Z,19
2019-03-31T00:43:02.081Z,20
2019-03-31T00:44:02.397Z,20
2019-03-31T00:45:01.533Z,22
2019-03-31T00:46:01.785Z,20
2019-03-31T00:47:02.407Z,19
2019-03-31T00:48:01.495Z,20
2019-03-31T00:49:01.715Z,20
2019-03-31T00:50:01.999Z,20
2019-03-31T00:51:02.259Z,20
2019-03-31T00:52:01.464Z,20
2019-03-31T00:53:01.736Z,22
2019-03-31T00:54:02.070Z,19
2019-03-31T00:55:02.240Z,21
2019-03-31T00:56:01.470Z,19
2019-03-31T00:57:01.770Z,20
2019-03-31T00:58:01.963Z,18
2019-03-31T00:59:02.242Z,18
2019-03-31T01:00:06.129Z,19
2019-03-31T01:01:02.013Z,19
2019-03-31T01:02:02.288Z,20
2019-03-31T01:03:01.445Z,21
2019-03-31T01:04:01.707Z,19
2019-03-31T01:05:01.896Z,19
2019-03-31T01:06:02.119Z,19
2019-03-31T01:07:02.333Z,19
2019-03-31T01:08:01.514Z,20
2019-03-31T01:09:01.749Z,17
2019-03-31T01:10:02.042Z,20
2019-03-31T01:11:02.252Z,20
2019-03-31T01:12:01.539Z,20
2019-03-31T01:13:01.726Z,19
2019-03-31T01:14:01.983Z,18
2019-03-31T01:15:02.372Z,20
2019-03-31T01:16:01.586Z,20
2019-03-31T01:17:01.778Z,19
2019-03-31T01:18:02.101Z,19
2019-03-31T01:19:02.305Z,18
2019-03-31T01:20:01.489Z,20
2019-03-31T01:21:01.668Z,20
2019-03-31T01:22:01.921Z,18
2019-03-31T01:23:01.699Z,17
2019-03-31T01:24:01.937Z,19
2019-03-31T01:25:02.155Z,20
2019-03-31T01:26:01.412Z,20
2019-03-31T01:27:01.632Z,20
2019-03-31T01:28:01.863Z,20
2019-03-31T01:29:02.142Z,17
2019-03-31T01:30:02.348Z,19
2019-03-31T01:31:01.546Z,18
2019-03-31T01:32:01.813Z,20
2019-03-31T01:33:02.105Z,19
2019-03-31T01:34:02.279Z,20
2019-03-31T01:35:01.464Z,19
2019-03-31T01:36:01.764Z,19
2019-03-31T01:37:01.950Z,20
2019-03-31T01:38:02.205Z,19
2019-03-31T01:39:02.333Z,20
2019-03-31T01:40:01.587Z,20
2019-03-31T01:41:01.869Z,19
2019-03-31T01:42:02.074Z,20
2019-03-31T01:43:02.339Z,20
2019-03-31T01:44:01.553Z,19
2019-03-31T01:45:01.763Z,18
2019-03-31T01:46:01.971Z,18
2019-03-31T01:47:02.145Z,17
2019-03-31T01:48:01.529Z,20
2019-03-31T01:49:01.588Z,20
2019-03-31T01:50:01.820Z,18
2019-03-31T01:51:02.054Z,19
2019-03-31T01:52:02.294Z,17
2019-03-31T01:53:01.456Z,18
2019-03-31T01:54:01.624Z,19
2019-03-31T01:55:02.002Z,18
2019-03-31T01:56:02.241Z,17
2019-03-31T01:57:01.460Z,20
2019-03-31T01:58:01.782Z,18
2019-03-31T01:59:01.866Z,17
2019-03-31T02:00:03.957Z,19
2019-03-31T02:01:01.833Z,20
2019-03-31T02:02:04.424Z,18
2019-03-31T02:03:02.332Z,18
2019-03-31T02:04:01.563Z,18
2019-03-31T02:05:01.795Z,17
2019-03-31T02:06:01.931Z,17
2019-03-31T02:07:02.167Z,20
2019-03-31T02:08:02.389Z,18
2019-03-31T02:09:01.593Z,18
2019-03-31T02:10:01.906Z,18
2019-03-31T02:11:02.109Z,18
2019-03-31T02:12:02.253Z,17
2019-03-31T02:13:01.540Z,16
2019-03-31T02:14:01.768Z,18
2019-03-31T02:15:01.965Z,17
2019-03-31T02:16:02.182Z,17
2019-03-31T02:17:02.359Z,20
2019-03-31T02:18:01.584Z,17
2019-03-31T02:19:01.486Z,16
2019-03-31T02:20:02.331Z,18
2019-03-31T02:21:01.458Z,17
2019-03-31T02:22:01.687Z,17
2019-03-31T02:23:02.003Z,17
2019-03-31T02:24:02.174Z,15
2019-03-31T02:25:01.446Z,17
2019-03-31T02:26:01.614Z,18
2019-03-31T02:27:01.915Z,18
2019-03-31T02:28:02.159Z,17
2019-03-31T02:29:02.323Z,17
2019-03-31T02:30:01.932Z,18
2019-03-31T02:31:01.808Z,17
2019-03-31T02:32:01.977Z,16
2019-03-31T02:33:02.248Z,17
2019-03-31T02:34:02.417Z,17
2019-03-31T02:35:01.704Z,17
2019-03-31T02:36:01.891Z,18
2019-03-31T02:37:02.066Z,15
2019-03-31T02:38:02.280Z,17
2019-03-31T02:39:01.442Z,16
2019-03-31T02:40:01.743Z,17
2019-03-31T02:41:01.885Z,18
2019-03-31T02:42:02.110Z,18
2019-03-31T02:43:02.319Z,18
2019-03-31T02:44:01.485Z,18
2019-03-31T02:45:01.769Z,17
2019-03-31T02:46:01.989Z,17
2019-03-31T02:47:02.149Z,17
2019-03-31T02:48:02.391Z,15
2019-03-31T02:49:01.594Z,18
2019-03-31T02:50:01.924Z,16
2019-03-31T02:51:02.146Z,16
2019-03-31T02:52:02.222Z,15
2019-03-31T02:53:01.439Z,17
2019-03-31T02:54:01.657Z,17
2019-03-31T02:55:02.025Z,14
2019-03-31T02:56:02.179Z,16
2019-03-31T02:57:02.407Z,15
2019-03-31T02:58:01.643Z,17
2019-03-31T02:59:01.902Z,16
2019-03-31T03:00:02.097Z,16
2019-03-31T03:01:01.844Z,13
2019-03-31T03:02:01.988Z,15
2019-03-31T03:03:02.248Z,15
2019-03-31T03:04:01.606Z,14
2019-03-31T03:05:17.675Z,16
2019-03-31T03:06:02.018Z,16
2019-03-31T03:07:02.112Z,15
2019-03-31T03:08:02.086Z,13
2019-03-31T03:09:02.402Z,15
2019-03-31T03:10:01.668Z,15
2019-03-31T03:11:01.739Z,16
2019-03-31T03:12:02.043Z,15
2019-03-31T03:13:02.310Z,15
2019-03-31T03:14:01.486Z,15
2019-03-31T03:15:01.714Z,15
2019-03-31T03:16:01.962Z,13
2019-03-31T03:17:02.295Z,14
2019-03-31T03:18:01.455Z,14
2019-03-31T03:19:01.699Z,17
2019-03-31T03:20:01.919Z,14
2019-03-31T03:21:02.206Z,14
2019-03-31T03:22:02.418Z,15
2019-03-31T03:23:01.584Z,13
2019-03-31T03:24:01.804Z,12
2019-03-31T03:25:02.147Z,14
2019-03-31T03:26:02.219Z,15
2019-03-31T03:27:01.684Z,14
2019-03-31T03:28:01.689Z,14
2019-03-31T03:29:02.110Z,14
2019-03-31T03:30:02.282Z,15
2019-03-31T03:31:01.561Z,16
2019-03-31T03:32:01.690Z,14
2019-03-31T03:33:14.771Z,14
2019-03-31T03:34:02.102Z,14
2019-03-31T03:35:02.305Z,14
2019-03-31T03:36:01.461Z,12
2019-03-31T03:37:01.715Z,13
2019-03-31T03:38:01.854Z,15
2019-03-31T03:39:02.066Z,14
2019-03-31T03:40:02.326Z,14
2019-03-31T03:41:01.554Z,13
2019-03-31T03:42:01.761Z,13
2019-03-31T03:43:01.952Z,14
2019-03-31T03:44:02.864Z,15
2019-03-31T03:45:02.440Z,12
2019-03-31T03:46:01.672Z,13
2019-03-31T03:47:01.959Z,12
2019-03-31T03:48:02.231Z,13
2019-03-31T03:49:02.454Z,13
2019-03-31T03:50:01.763Z,13
2019-03-31T03:51:01.906Z,13
2019-03-31T03:52:02.140Z,13
2019-03-31T03:53:02.406Z,14
2019-03-31T03:54:01.577Z,13
2019-03-31T03:55:01.937Z,14
2019-03-31T03:56:02.050Z,14
2019-03-31T03:57:02.280Z,11
2019-03-31T03:58:01.497Z,14
2019-03-31T03:59:01.722Z,12
2019-03-31T04:00:05.047Z,12
2019-03-31T04:01:01.760Z,13
2019-03-31T04:02:02.095Z,12
2019-03-31T04:03:02.310Z,13
2019-03-31T04:04:01.580Z,12
2019-03-31T04:05:01.923Z,13
2019-03-31T04:06:02.059Z,14
2019-03-31T04:07:02.264Z,11
2019-03-31T04:08:01.416Z,13
2019-03-31T04:09:01.697Z,13
2019-03-31T04:10:01.947Z,12
2019-03-31T04:11:02.164Z,13
2019-03-31T04:12:02.460Z,12
2019-03-31T04:13:01.640Z,12
2019-03-31T04:14:01.910Z,12
2019-03-31T04:15:02.064Z,12
2019-03-31T04:16:02.319Z,12
2019-03-31T04:17:01.579Z,12
2019-03-31T04:18:01.837Z,13
2019-03-31T04:19:02.136Z,13
2019-03-31T04:20:02.024Z,12
2019-03-31T04:21:02.244Z,13
2019-03-31T04:22:01.477Z,11
2019-03-31T04:23:01.790Z,13
2019-03-31T04:24:01.941Z,13
2019-03-31T04:25:02.316Z,11
2019-03-31T04:26:01.507Z,12
2019-03-31T04:27:01.754Z,11
2019-03-31T04:28:01.990Z,13
2019-03-31T04:29:01.801Z,11
2019-03-31T04:30:02.093Z,12
2019-03-31T04:31:02.371Z,12
2019-03-31T04:32:01.581Z,12
2019-03-31T04:33:01.732Z,11
2019-03-31T04:34:01.923Z,11
2019-03-31T04:35:02.277Z,10
2019-03-31T04:36:02.374Z,12
2019-03-31T04:37:01.610Z,12
2019-03-31T04:38:01.821Z,11
2019-03-31T04:39:02.129Z,12
2019-03-31T04:40:02.372Z,10
2019-03-31T04:41:01.538Z,11
2019-03-31T04:42:01.744Z,11
2019-03-31T04:43:01.993Z,11
2019-03-31T04:44:02.263Z,10
2019-03-31T04:45:02.432Z,10
2019-03-31T04:46:01.662Z,11
2019-03-31T04:47:01.874Z,11
2019-03-31T04:48:02.113Z,11
2019-03-31T04:49:02.405Z,9
2019-03-31T04:50:01.599Z,10
2019-03-31T04:51:01.874Z,10
2019-03-31T04:52:02.039Z,11
2019-03-31T04:53:02.224Z,12
2019-03-31T04:54:01.471Z,12
2019-03-31T04:55:01.680Z,11
2019-03-31T04:56:01.885Z,11
2019-03-31T04:57:04.529Z,10
2019-03-31T04:58:02.336Z,11
2019-03-31T04:59:01.572Z,12
2019-03-31T05:00:05.001Z,11
2019-03-31T05:01:01.833Z,11
2019-03-31T05:02:01.985Z,11
2019-03-31T05:03:02.209Z,11
2019-03-31T05:04:05.152Z,10
2019-03-31T05:05:01.741Z,10
2019-03-31T05:06:01.948Z,10
2019-03-31T05:07:02.127Z,10
2019-03-31T05:08:01.411Z,10
2019-03-31T05:09:01.718Z,11
2019-03-31T05:10:01.902Z,11
2019-03-31T05:11:02.112Z,11
2019-03-31T05:12:02.372Z,10
2019-03-31T05:13:01.533Z,11
2019-03-31T05:14:01.851Z,10
2019-03-31T05:15:02.373Z,11
2019-03-31T05:16:02.370Z,9
2019-03-31T05:17:01.583Z,11
2019-03-31T05:18:01.855Z,11
2019-03-31T05:19:02.088Z,11
2019-03-31T05:20:02.373Z,11
2019-03-31T05:21:01.573Z,10
2019-03-31T05:22:01.761Z,8
2019-03-31T05:23:01.957Z,10
2019-03-31T05:24:02.184Z,11
2019-03-31T05:25:02.433Z,10
2019-03-31T05:26:01.635Z,9
2019-03-31T05:27:01.867Z,11
2019-03-31T05:28:02.090Z,8
2019-03-31T05:29:02.248Z,9
2019-03-31T05:30:02.064Z,11
2019-03-31T05:31:02.375Z,11
2019-03-31T05:32:01.578Z,10
2019-03-31T05:33:01.801Z,10
2019-03-31T05:34:02.059Z,10
2019-03-31T05:35:02.350Z,10
2019-03-31T05:36:01.500Z,10
2019-03-31T05:37:01.741Z,9
2019-03-31T05:38:01.957Z,11
2019-03-31T05:39:02.151Z,9
2019-03-31T05:40:01.591Z,9
2019-03-31T05:41:01.731Z,10
2019-03-31T05:42:01.913Z,11
2019-03-31T05:43:02.232Z,9
2019-03-31T05:44:05.764Z,11
2019-03-31T05:45:01.673Z,10
2019-03-31T05:46:01.980Z,10
2019-03-31T05:47:02.100Z,10
2019-03-31T05:48:02.340Z,8
2019-03-31T05:49:01.564Z,8
2019-03-31T05:50:01.929Z,9
2019-03-31T05:51:02.075Z,10
2019-03-31T05:52:02.289Z,10
2019-03-31T05:53:01.450Z,11
2019-03-31T05:54:01.682Z,11
2019-03-31T05:55:01.949Z,8
2019-03-31T05:56:02.081Z,8
2019-03-31T05:57:02.324Z,10
2019-03-31T05:58:01.489Z,10
2019-03-31T05:59:01.712Z,10
2019-03-31T06:00:04.769Z,8
2019-03-31T06:01:01.639Z,9
2019-03-31T06:02:01.777Z,10
2019-03-31T06:03:02.006Z,10
2019-03-31T06:04:02.204Z,10
2019-03-31T06:05:01.446Z,8
2019-03-31T06:06:01.771Z,9
2019-03-31T06:07:01.918Z,9
2019-03-31T06:08:02.083Z,9
2019-03-31T06:09:02.319Z,9
2019-03-31T06:10:01.539Z,10
2019-03-31T06:11:01.832Z,10
2019-03-31T06:12:02.001Z,9
2019-03-31T06:13:02.236Z,10
2019-03-31T06:14:01.506Z,9
2019-03-31T06:15:01.866Z,10
2019-03-31T06:16:01.910Z,9
2019-03-31T06:17:01.953Z,7
2019-03-31T06:18:02.068Z,9
2019-03-31T06:19:02.312Z,10
2019-03-31T06:20:01.522Z,10
2019-03-31T06:21:01.713Z,9
2019-03-31T06:22:02.036Z,8
2019-03-31T06:23:02.221Z,9
2019-03-31T06:24:01.398Z,10
2019-03-31T06:25:01.958Z,9
2019-03-31T06:26:01.873Z,10
2019-03-31T06:27:02.218Z,10
2019-03-31T06:28:02.321Z,9
2019-03-31T06:29:01.461Z,8
2019-03-31T06:30:01.697Z,7
2019-03-31T06:31:01.671Z,10
2019-03-31T06:32:01.866Z,9
2019-03-31T06:33:02.104Z,9
2019-03-31T06:34:02.312Z,9
2019-03-31T06:35:01.564Z,9
2019-03-31T06:36:01.829Z,7
2019-03-31T06:37:02.076Z,8
2019-03-31T06:38:02.223Z,11
2019-03-31T06:39:01.531Z,9
2019-03-31T06:40:01.688Z,8
2019-03-31T06:41:01.945Z,10
2019-03-31T06:42:02.181Z,10
2019-03-31T06:43:02.265Z,9
2019-03-31T06:44:01.470Z,9
2019-03-31T06:45:02.302Z,8
2019-03-31T06:46:01.454Z,11
2019-03-31T06:47:01.661Z,10
2019-03-31T06:48:01.837Z,12
2019-03-31T06:49:02.087Z,10
2019-03-31T06:50:02.479Z,9
2019-03-31T06:51:01.577Z,9
2019-03-31T06:52:01.807Z,9
2019-03-31T06:53:01.970Z,9
2019-03-31T06:54:02.241Z,9
2019-03-31T06:55:02.450Z,9
2019-03-31T06:56:01.536Z,9
2019-03-31T06:57:01.780Z,9
2019-03-31T06:58:01.963Z,7
2019-03-31T06:59:02.184Z,9
2019-03-31T07:00:03.585Z,8
2019-03-31T07:01:02.389Z,9
2019-03-31T07:02:03.311Z,9
2019-03-31T07:03:01.839Z,10
2019-03-31T07:04:02.035Z,9
2019-03-31T07:05:02.317Z,9
2019-03-31T07:06:01.554Z,8
2019-03-31T07:07:01.765Z,8
2019-03-31T07:08:02.023Z,8
2019-03-31T07:09:02.218Z,8
2019-03-31T07:10:01.886Z,8
2019-03-31T07:11:01.850Z,8
2019-03-31T07:12:02.043Z,9
2019-03-31T07:13:02.246Z,7
2019-03-31T07:14:01.480Z,7
2019-03-31T07:15:01.708Z,7
2019-03-31T07:16:01.878Z,7
2019-03-31T07:17:02.128Z,7
2019-03-31T07:18:01.879Z,7
2019-03-31T07:19:01.940Z,7
2019-03-31T07:20:02.218Z,7
2019-03-31T07:21:01.464Z,6
2019-03-31T07:22:01.662Z,6
2019-03-31T07:23:01.822Z,7
2019-03-31T07:24:02.000Z,6
2019-03-31T07:25:02.265Z,7
2019-03-31T07:26:01.428Z,7
2019-03-31T07:27:01.965Z,6
2019-03-31T07:28:02.144Z,7
2019-03-31T07:29:02.330Z,7
2019-03-31T07:30:01.576Z,7
2019-03-31T07:31:01.773Z,7
2019-03-31T07:32:01.988Z,7
2019-03-31T07:33:01.997Z,8
2019-03-31T07:34:02.239Z,5
2019-03-31T07:35:01.494Z,7
2019-03-31T07:36:01.657Z,7
2019-03-31T07:37:01.881Z,7
2019-03-31T07:38:02.090Z,6
2019-03-31T07:39:02.682Z,6
2019-03-31T07:40:01.723Z,7
2019-03-31T07:41:12.434Z,6
2019-03-31T07:42:02.272Z,7
2019-03-31T07:43:02.240Z,7
2019-03-31T07:44:01.376Z,7
2019-03-31T07:45:01.765Z,7
2019-03-31T07:46:01.930Z,6
2019-03-31T07:47:02.187Z,6
2019-03-31T07:48:01.477Z,7
2019-03-31T07:49:01.637Z,6
2019-03-31T07:50:01.962Z,7
2019-03-31T07:51:02.079Z,8
2019-03-31T07:52:02.234Z,7
2019-03-31T07:53:01.507Z,7
2019-03-31T07:54:01.719Z,6
2019-03-31T07:55:02.067Z,6
2019-03-31T07:56:02.235Z,7
2019-03-31T07:57:01.481Z,8
2019-03-31T07:58:01.646Z,7
2019-03-31T07:59:01.915Z,5
2019-03-31T08:00:03.663Z,7
2019-03-31T08:01:01.410Z,5
2019-03-31T08:02:01.986Z,6
2019-03-31T08:03:02.182Z,7
2019-03-31T08:04:01.384Z,7
2019-03-31T08:05:01.679Z,6
2019-03-31T08:06:01.646Z,6
2019-03-31T08:07:01.848Z,7
2019-03-31T08:08:01.971Z,7
2019-03-31T08:09:02.251Z,6
2019-03-31T08:10:02.437Z,6
2019-03-31T08:11:01.653Z,5
2019-03-31T08:12:01.824Z,5
2019-03-31T08:13:02.036Z,6
2019-03-31T08:14:02.211Z,6
2019-03-31T08:15:01.497Z,6
2019-03-31T08:16:02.245Z,6
2019-03-31T08:17:01.423Z,7
2019-03-31T08:18:01.684Z,6
2019-03-31T08:19:01.799Z,4
2019-03-31T08:20:02.054Z,6
2019-03-31T08:21:02.241Z,6
2019-03-31T08:22:02.265Z,6
2019-03-31T08:23:01.495Z,7
2019-03-31T08:24:01.808Z,5
2019-03-31T08:25:01.825Z,5
2019-03-31T08:26:01.996Z,6
2019-03-31T08:27:05.484Z,6
2019-03-31T08:28:01.502Z,5
2019-03-31T08:29:01.698Z,6
2019-03-31T08:30:01.943Z,6
2019-03-31T08:31:01.864Z,6
2019-03-31T08:32:02.164Z,6
2019-03-31T08:33:01.396Z,6
2019-03-31T08:34:01.597Z,6
2019-03-31T08:35:01.747Z,6
2019-03-31T08:36:02.077Z,6
2019-03-31T08:37:02.166Z,5
2019-03-31T08:38:01.375Z,6
2019-03-31T08:39:01.659Z,4
2019-03-31T08:40:01.911Z,4
2019-03-31T08:41:02.092Z,6
2019-03-31T08:42:02.323Z,6
2019-03-31T08:43:01.559Z,6
2019-03-31T08:44:01.768Z,4
2019-03-31T08:45:02.089Z,6
2019-03-31T08:46:02.206Z,5
2019-03-31T08:47:02.350Z,4
2019-03-31T08:48:01.547Z,5
2019-03-31T08:49:01.818Z,4
2019-03-31T08:50:02.710Z,5
2019-03-31T08:51:02.137Z,5
2019-03-31T08:52:02.266Z,5
2019-03-31T08:53:01.477Z,5
2019-03-31T08:54:01.702Z,5
2019-03-31T08:55:02.024Z,6
2019-03-31T08:56:02.255Z,5
2019-03-31T08:57:01.454Z,4
2019-03-31T08:58:01.687Z,4
2019-03-31T08:59:01.891Z,5
2019-03-31T09:00:07.755Z,5
2019-03-31T09:01:01.558Z,3
2019-03-31T09:02:03.305Z,4
2019-03-31T09:03:01.909Z,4
2019-03-31T09:04:02.173Z,4
2019-03-31T09:05:02.447Z,6
2019-03-31T09:06:02.550Z,5
2019-03-31T09:07:01.887Z,6
2019-03-31T09:08:02.265Z,5
2019-03-31T09:09:01.436Z,4
2019-03-31T09:10:01.656Z,5
2019-03-31T09:11:01.862Z,5
2019-03-31T09:12:02.077Z,4
2019-03-31T09:13:02.350Z,4
2019-03-31T09:14:01.573Z,6
2019-03-31T09:15:01.859Z,5
2019-03-31T09:16:02.077Z,4
2019-03-31T09:17:02.316Z,5
2019-03-31T09:18:01.475Z,6
2019-03-31T09:19:01.664Z,5
2019-03-31T09:20:01.939Z,4
2019-03-31T09:21:02.117Z,5
2019-03-31T09:22:02.323Z,4
2019-03-31T09:23:01.538Z,4
2019-03-31T09:24:01.714Z,5
2019-03-31T09:25:01.998Z,4
2019-03-31T09:26:02.241Z,2
2019-03-31T09:27:02.378Z,5
2019-03-31T09:28:01.625Z,3
2019-03-31T09:29:01.772Z,5
2019-03-31T09:30:02.044Z,4
2019-03-31T09:31:02.271Z,4
2019-03-31T09:32:01.532Z,5
2019-03-31T09:33:01.662Z,4
2019-03-31T09:34:01.852Z,5
2019-03-31T09:35:02.057Z,5
2019-03-31T09:36:15.438Z,5
2019-03-31T09:37:01.372Z,5
2019-03-31T09:38:01.575Z,3
2019-03-31T09:39:01.798Z,4
2019-03-31T09:40:02.056Z,3
2019-03-31T09:41:02.233Z,3
2019-03-31T09:42:01.510Z,4
2019-03-31T09:43:01.725Z,4
2019-03-31T09:44:02.084Z,3
2019-03-31T09:45:02.360Z,3
2019-03-31T09:46:01.537Z,4
2019-03-31T09:47:01.738Z,2
2019-03-31T09:48:02.024Z,5
2019-03-31T09:49:02.249Z,2
2019-03-31T09:50:01.501Z,3
2019-03-31T09:51:01.730Z,4
2019-03-31T09:52:01.894Z,4
2019-03-31T09:53:01.831Z,4
2019-03-31T09:54:02.005Z,4
2019-03-31T09:55:02.371Z,3
2019-03-31T09:56:01.618Z,4
2019-03-31T09:57:01.808Z,2
2019-03-31T09:58:02.022Z,3
2019-03-31T09:59:02.111Z,4
2019-03-31T10:00:04.015Z,4
2019-03-31T10:01:01.784Z,3
2019-03-31T10:02:01.945Z,3
2019-03-31T10:03:02.175Z,3
2019-03-31T10:04:01.378Z,5
2019-03-31T10:05:01.631Z,3
2019-03-31T10:06:10.496Z,3
2019-03-31T10:07:02.015Z,2
2019-03-31T10:08:02.173Z,2
2019-03-31T10:09:01.383Z,4
2019-03-31T10:10:01.709Z,4
2019-03-31T10:11:03.089Z,5
2019-03-31T10:12:02.029Z,3
2019-03-31T10:13:02.277Z,3
2019-03-31T10:14:01.478Z,3
2019-03-31T10:15:01.723Z,6
2019-03-31T10:16:01.939Z,7
2019-03-31T10:17:02.170Z,5
2019-03-31T10:18:02.386Z,7
2019-03-31T10:19:01.573Z,6
2019-03-31T10:20:01.841Z,6
2019-03-31T10:21:01.920Z,6
2019-03-31T10:22:02.107Z,7
2019-03-31T10:23:02.323Z,8
2019-03-31T10:24:01.552Z,6
2019-03-31T10:25:01.751Z,5
2019-03-31T10:26:01.881Z,6
2019-03-31T10:27:02.105Z,6
2019-03-31T10:28:02.315Z,7
2019-03-31T10:29:01.529Z,6
2019-03-31T10:30:01.809Z,5
2019-03-31T10:31:01.887Z,4
2019-03-31T10:32:02.120Z,4
2019-03-31T10:33:02.175Z,2
2019-03-31T10:34:01.392Z,3
2019-03-31T10:35:01.780Z,4
2019-03-31T10:36:01.870Z,3
2019-03-31T10:37:02.104Z,2
2019-03-31T10:38:02.212Z,3
2019-03-31T10:39:01.430Z,3
2019-03-31T10:40:01.644Z,4
2019-03-31T10:41:01.780Z,2
2019-03-31T10:42:02.017Z,3
2019-03-31T10:43:02.153Z,2
2019-03-31T10:44:02.344Z,3
2019-03-31T10:45:01.622Z,3
2019-03-31T10:46:01.796Z,3
2019-03-31T10:47:02.017Z,4
2019-03-31T10:48:02.179Z,3
2019-03-31T10:49:01.443Z,2
2019-03-31T10:50:01.631Z,3
2019-03-31T10:51:01.826Z,3
2019-03-31T10:52:02.059Z,2
2019-03-31T10:53:02.176Z,3
2019-03-31T10:54:04.634Z,4
2019-03-31T10:55:02.229Z,3
2019-03-31T10:56:01.428Z,2
2019-03-31T10:57:01.687Z,3
2019-03-31T10:58:01.767Z,4
2019-03-31T10:59:02.019Z,4
2019-03-31T11:00:04.264Z,2
2019-03-31T11:01:01.979Z,3
2019-03-31T11:02:02.250Z,4
2019-03-31T11:03:02.149Z,4
2019-03-31T11:04:02.375Z,4
2019-03-31T11:05:01.653Z,2
2019-03-31T11:06:01.844Z,4
2019-03-31T11:07:03.626Z,5
2019-03-31T11:08:02.300Z,3
2019-03-31T11:09:01.452Z,5
2019-03-31T11:10:01.863Z,5
2019-03-31T11:11:02.079Z,4
2019-03-31T11:12:02.187Z,2
2019-03-31T11:13:01.398Z,4
2019-03-31T11:14:01.637Z,4
2019-03-31T11:15:01.974Z,2
2019-03-31T11:16:02.184Z,3
2019-03-31T11:17:01.429Z,4
2019-03-31T11:18:01.656Z,4
2019-03-31T11:19:01.892Z,3
2019-03-31T11:20:02.232Z,3
2019-03-31T11:21:01.456Z,3
2019-03-31T11:22:01.706Z,3
2019-03-31T11:23:01.840Z,4
2019-03-31T11:24:02.050Z,3
2019-03-31T11:25:02.339Z,3
2019-03-31T11:26:01.459Z,3
2019-03-31T11:27:01.690Z,3
2019-03-31T11:28:01.958Z,3
2019-03-31T11:29:02.242Z,3
2019-03-31T11:30:02.374Z,2
2019-03-31T11:31:01.611Z,5
2019-03-31T11:32:01.787Z,3
2019-03-31T11:33:02.007Z,3
2019-03-31T11:34:02.310Z,3
2019-03-31T11:35:01.678Z,3
2019-03-31T11:36:01.682Z,3
2019-03-31T11:37:12.918Z,5
2019-03-31T11:38:02.162Z,5
2019-03-31T11:39:01.484Z,3
2019-03-31T11:40:01.792Z,4
2019-03-31T11:41:01.965Z,3
2019-03-31T11:42:02.183Z,2
2019-03-31T11:43:01.430Z,2
2019-03-31T11:44:01.666Z,3
2019-03-31T11:45:01.956Z,2
2019-03-31T11:46:02.078Z,2
2019-03-31T11:47:02.335Z,3
2019-03-31T11:48:01.505Z,3
2019-03-31T11:49:01.691Z,4
2019-03-31T11:50:01.758Z,3
2019-03-31T11:51:01.992Z,2
2019-03-31T11:52:02.258Z,3
2019-03-31T11:53:01.439Z,3
2019-03-31T11:54:01.604Z,2
2019-03-31T11:55:01.905Z,2
2019-03-31T11:56:01.964Z,3
2019-03-31T11:57:02.139Z,4
2019-03-31T11:58:01.946Z,4
2019-03-31T11:59:02.165Z,6
2019-03-31T12:00:03.330Z,3
2019-03-31T12:01:02.132Z,5
2019-03-31T12:02:02.391Z,4
2019-03-31T12:03:01.662Z,3
2019-03-31T12:04:01.880Z,3
2019-03-31T12:05:02.183Z,3
2019-03-31T12:06:01.403Z,5
2019-03-31T12:07:01.618Z,6
2019-03-31T12:08:02.134Z,4
2019-03-31T12:09:02.319Z,4
2019-03-31T12:10:01.601Z,4
2019-03-31T12:11:01.748Z,4
2019-03-31T12:12:01.968Z,4
2019-03-31T12:13:02.131Z,5
2019-03-31T12:14:02.426Z,4
2019-03-31T12:15:01.699Z,4
2019-03-31T12:16:01.944Z,4
2019-03-31T12:17:02.085Z,4
2019-03-31T12:18:02.361Z,3
2019-03-31T12:19:01.565Z,5
2019-03-31T12:20:01.722Z,5
2019-03-31T12:21:01.936Z,4
2019-03-31T12:22:02.075Z,6
2019-03-31T12:23:02.246Z,5
2019-03-31T12:24:01.514Z,4
2019-03-31T12:25:01.706Z,5
2019-03-31T12:26:01.845Z,5
2019-03-31T12:27:02.057Z,5
2019-03-31T12:28:02.316Z,5
2019-03-31T12:29:01.484Z,5
2019-03-31T12:30:02.407Z,5
2019-03-31T12:31:01.623Z,10
2019-03-31T12:32:01.869Z,13
2019-03-31T12:33:01.987Z,10
2019-03-31T12:34:02.162Z,7
2019-03-31T12:35:01.462Z,8
2019-03-31T12:36:01.700Z,10
2019-03-31T12:37:01.921Z,9
2019-03-31T12:38:02.099Z,8
2019-03-31T12:39:02.367Z,9
2019-03-31T12:40:01.562Z,7
2019-03-31T12:41:01.734Z,10
2019-03-31T12:42:02.048Z,10
2019-03-31T12:43:02.354Z,10
2019-03-31T12:44:01.534Z,9
2019-03-31T12:45:02.380Z,7
2019-03-31T12:46:01.498Z,3
2019-03-31T12:47:01.804Z,5
2019-03-31T12:48:01.888Z,7
2019-03-31T12:49:02.067Z,10
2019-03-31T12:50:02.380Z,11
2019-03-31T12:51:01.816Z,9
2019-03-31T12:52:02.122Z,8
2019-03-31T12:53:02.270Z,8
2019-03-31T12:54:01.479Z,8
2019-03-31T12:55:01.658Z,8
2019-03-31T12:56:01.881Z,10
2019-03-31T12:57:02.346Z,11
2019-03-31T12:58:02.306Z,9
2019-03-31T12:59:01.513Z,8
2019-03-31T13:00:04.366Z,9
2019-03-31T13:01:02.093Z,10
2019-03-31T13:02:01.457Z,8
2019-03-31T13:03:01.712Z,8
2019-03-31T13:04:01.904Z,10
2019-03-31T13:05:02.190Z,8
2019-03-31T13:06:02.356Z,7
2019-03-31T13:07:01.495Z,7
2019-03-31T13:08:01.855Z,8
2019-03-31T13:09:02.019Z,8
2019-03-31T13:10:02.263Z,9
2019-03-31T13:11:01.528Z,11
2019-03-31T13:12:01.673Z,9
2019-03-31T13:13:01.955Z,8
2019-03-31T13:14:02.160Z,8
2019-03-31T13:15:02.099Z,8
2019-03-31T13:16:01.812Z,9
2019-03-31T13:17:02.063Z,9
2019-03-31T13:18:02.287Z,5
2019-03-31T13:19:01.433Z,8
2019-03-31T13:20:02.466Z,7
2019-03-31T13:21:01.808Z,7
2019-03-31T13:22:01.905Z,7
2019-03-31T13:23:02.115Z,7
2019-03-31T13:24:02.316Z,7
2019-03-31T13:25:02.923Z,7
2019-03-31T13:26:01.457Z,7
2019-03-31T13:27:01.653Z,6
2019-03-31T13:28:01.941Z,6
2019-03-31T13:29:02.143Z,5
2019-03-31T13:30:02.422Z,4
2019-03-31T13:31:01.623Z,7
2019-03-31T13:32:01.930Z,6
2019-03-31T13:33:02.145Z,5
2019-03-31T13:34:02.294Z,6
2019-03-31T13:35:01.675Z,5
2019-03-31T13:36:01.785Z,5
2019-03-31T13:37:01.819Z,6
2019-03-31T13:38:11.088Z,5
2019-03-31T13:39:02.366Z,5
2019-03-31T13:40:01.744Z,5
2019-03-31T13:41:01.864Z,4
2019-03-31T13:42:02.142Z,6
2019-03-31T13:43:02.330Z,5
2019-03-31T13:44:01.609Z,5
2019-03-31T13:45:02.027Z,5
2019-03-31T13:46:01.970Z,4
2019-03-31T13:47:02.276Z,5
2019-03-31T13:48:01.483Z,5
2019-03-31T13:49:01.705Z,5
2019-03-31T13:50:02.305Z,4
2019-03-31T13:51:02.027Z,4
2019-03-31T13:52:02.218Z,6
2019-03-31T13:53:01.425Z,6
2019-03-31T13:54:01.601Z,3
2019-03-31T13:55:01.888Z,5
2019-03-31T13:56:02.042Z,3
2019-03-31T13:57:02.786Z,5
2019-03-31T13:58:02.650Z,4
2019-03-31T13:59:01.765Z,5
2019-03-31T14:00:04.567Z,3
2019-03-31T14:01:02.370Z,3
2019-03-31T14:02:01.497Z,3
2019-03-31T14:03:01.712Z,3
2019-03-31T14:04:03.693Z,3
2019-03-31T14:05:02.192Z,3
2019-03-31T14:06:01.495Z,3
2019-03-31T14:07:04.323Z,1
2019-03-31T14:08:02.017Z,3
2019-03-31T14:09:02.188Z,3
2019-03-31T14:10:02.361Z,3
2019-03-31T14:11:01.598Z,2
2019-03-31T14:12:01.678Z,2
2019-03-31T14:13:01.886Z,1
2019-03-31T14:14:02.091Z,3
2019-03-31T14:15:01.581Z,3
2019-03-31T14:16:01.677Z,3
2019-03-31T14:17:01.966Z,2
2019-03-31T14:18:02.161Z,3
2019-03-31T14:19:02.354Z,2
2019-03-31T14:20:02.505Z,1
2019-03-31T14:21:02.057Z,3
2019-03-31T14:22:02.241Z,1
2019-03-31T14:23:02.169Z,1
2019-03-31T14:24:02.427Z,2
2019-03-31T14:25:01.617Z,3
2019-03-31T14:26:01.845Z,2
2019-03-31T14:27:02.070Z,1
2019-03-31T14:28:02.257Z,2
2019-03-31T14:29:01.451Z,1
2019-03-31T14:30:01.808Z,2
2019-03-31T14:31:01.943Z,1
2019-03-31T14:32:02.228Z,2
2019-03-31T14:33:02.350Z,1